Time;durP1;ratioP1;P1;durP2;ratioP2;P2;SDS_P1;SDS_P2;PMS_P1;PMS_P2;Temp;Humidity;BMP_temperature;BMP_pressure;BME280_temperature;BME280_humidity;BME280_pressure;Samples;Min_cycle;Max_cycle;Signal;HPM_P1;HPM_P2
2022/06/06 00:02:52;;;;;;;4.93;4.47;;;;;;;16.89;100.00;100227.25;6241751;28;20615;-92
2022/06/06 00:05:54;;;;;;;5.75;3.60;;;;;;;16.91;100.00;100223.47;6240566;28;20053;-92
2022/06/06 00:08:57;;;;;;;5.50;3.85;;;;;;;16.78;100.00;100223.22;6263055;28;20483;-93
2022/06/06 00:12:02;;;;;;;5.25;4.00;;;;;;;16.72;100.00;100229.06;6262691;28;20127;-93
2022/06/06 00:15:05;;;;;;;4.60;4.20;;;;;;;16.55;100.00;100220.47;6249081;28;20037;-93
2022/06/06 00:18:07;;;;;;;5.50;5.00;;;;;;;16.40;100.00;100214.28;6252793;28;20060;-94
2022/06/06 00:21:11;;;;;;;4.80;4.28;;;;;;;16.38;100.00;100205.84;6237357;28;20415;-93
2022/06/06 00:24:14;;;;;;;4.78;4.20;;;;;;;16.40;100.00;100202.06;6245261;28;20037;-93
2022/06/06 00:27:16;;;;;;;4.57;4.18;;;;;;;16.28;100.00;100206.81;6258818;28;20044;-95
2022/06/06 00:30:18;;;;;;;5.45;4.90;;;;;;;16.16;100.00;100213.38;6245097;28;20057;-94
2022/06/06 00:36:44;;;;;;;5.28;4.78;;;;;;;15.91;100.00;100208.16;6229757;28;20057;-95
2022/06/06 00:39:46;;;;;;;6.03;4.88;;;;;;;15.98;100.00;100216.16;6236472;28;20037;-95
2022/06/06 00:42:48;;;;;;;6.72;5.15;;;;;;;15.92;100.00;100212.41;6216309;28;20639;-93
2022/06/06 00:45:55;;;;;;;7.22;5.30;;;;;;;15.86;100.00;100201.81;6215822;28;20405;-94
2022/06/06 00:48:57;;;;;;;6.30;5.70;;;;;;;15.87;100.00;100206.03;6251690;28;20044;-95
2022/06/06 00:52:00;;;;;;;5.72;5.20;;;;;;;15.84;100.00;100208.97;6239606;28;20049;-96
2022/06/06 00:55:08;;;;;;;5.32;4.75;;;;;;;16.05;100.00;100216.31;6261683;28;20048;-94
2022/06/06 00:58:15;;;;;;;5.95;5.07;;;;;;;16.22;100.00;100204.03;6234124;28;20223;-95
2022/06/06 01:01:20;;;;;;;5.45;4.95;;;;;;;16.25;100.00;100204.53;6233002;28;20038;-94
2022/06/06 01:04:26;;;;;;;6.60;5.38;;;;;;;16.38;100.00;100203.22;6228578;28;20060;-94
2022/06/06 01:07:28;;;;;;;4.78;4.38;;;;;;;16.32;100.00;100202.91;6236227;28;20399;-94
2022/06/06 01:10:31;;;;;;;6.18;5.20;;;;;;;16.35;100.00;100201.75;6237356;28;20045;-94
2022/06/06 01:13:35;;;;;;;7.45;5.50;;;;;;;16.32;100.00;100200.28;6228517;28;20155;-95
2022/06/06 01:17:10;;;;;;;6.10;5.35;;;;;;;16.22;100.00;100193.59;6236571;28;20057;-95
2022/06/06 01:20:24;;;;;;;7.53;5.50;;;;;;;16.22;100.00;100196.22;6169901;28;20057;-94
2022/06/06 01:23:41;;;;;;;5.72;5.13;;;;;;;16.31;100.00;100200.44;6171127;28;20047;-94
2022/06/06 01:27:08;;;;;;;7.05;5.50;;;;;;;16.43;100.00;100204.34;6186367;28;20141;-92
2022/06/06 01:30:15;;;;;;;8.57;5.65;;;;;;;16.24;100.00;100199.47;6185426;28;20089;-93
2022/06/06 01:33:17;;;;;;;6.88;5.25;;;;;;;16.20;100.00;100199.00;6157616;28;20042;-92
2022/06/06 01:36:20;;;;;;;7.50;5.88;;;;;;;16.35;100.00;100206.97;6196337;28;20085;-91
2022/06/06 01:39:24;;;;;;;8.63;6.60;;;;;;;16.49;100.00;100208.06;6185948;28;20110;-91
2022/06/06 01:42:35;;;;;;;8.02;7.22;;;;;;;16.52;100.00;100205.97;6169411;28;20053;-91
2022/06/06 01:45:43;;;;;;;8.02;7.05;;;;;;;16.51;100.00;100217.38;6196438;28;20069;-91
2022/06/06 01:48:47;;;;;;;8.25;7.32;;;;;;;16.46;100.00;100221.47;6185811;28;20148;-91
2022/06/06 01:52:05;;;;;;;8.77;7.25;;;;;;;16.51;100.00;100214.75;6185752;28;20046;-90
2022/06/06 01:55:07;;;;;;;11.55;8.18;;;;;;;16.56;100.00;100216.88;6194394;28;20078;-90
2022/06/06 01:58:29;;;;;;;10.98;8.45;;;;;;;16.55;100.00;100218.69;6242982;28;20513;-89
2022/06/06 02:01:31;;;;;;;10.90;8.95;;;;;;;16.53;100.00;100215.41;6244388;28;20038;-90
2022/06/06 02:04:33;;;;;;;14.68;10.85;;;;;;;16.55;100.00;100205.63;6239513;28;20509;-89
2022/06/06 02:07:35;;;;;;;16.45;11.43;;;;;;;16.56;100.00;100209.03;6238247;28;20049;-89
2022/06/06 02:10:38;;;;;;;15.48;12.18;;;;;;;16.52;100.00;100208.56;6242609;28;20049;-90
2022/06/06 02:13:40;;;;;;;16.05;11.90;;;;;;;16.53;100.00;100206.75;6229490;28;20475;-90
2022/06/06 02:16:42;;;;;;;19.60;12.98;;;;;;;16.50;100.00;100209.72;6245437;28;20042;-89
2022/06/06 02:19:44;;;;;;;17.63;13.50;;;;;;;16.50;100.00;100212.34;6241299;28;20041;-90
2022/06/06 02:22:47;;;;;;;19.88;14.45;;;;;;;16.47;100.00;100208.25;6241488;28;20406;-89
2022/06/06 02:25:50;;;;;;;20.70;13.95;;;;;;;16.49;100.00;100219.34;6236218;28;20044;-90
2022/06/06 02:28:51;;;;;;;22.73;15.77;;;;;;;16.44;100.00;100216.41;6231105;28;20047;-90
2022/06/06 02:31:53;;;;;;;23.30;15.23;;;;;;;16.36;100.00;100211.22;6240655;28;20041;-90
2022/06/06 02:34:55;;;;;;;21.42;15.50;;;;;;;16.27;100.00;100210.44;6241545;28;20471;-90
2022/06/06 02:37:58;;;;;;;21.85;15.55;;;;;;;16.23;100.00;100213.53;6246602;28;20056;-89
2022/06/06 02:41:07;;;;;;;19.98;14.25;;;;;;;16.18;100.00;100218.44;6230087;28;20145;-89
2022/06/06 02:44:10;;;;;;;21.13;15.10;;;;;;;16.11;100.00;100211.25;6240853;28;20051;-90
2022/06/06 02:47:12;;;;;;;19.58;13.52;;;;;;;16.10;100.00;100208.81;6236930;28;20506;-89
2022/06/06 02:50:17;;;;;;;18.80;13.35;;;;;;;16.04;100.00;100214.69;6241498;28;20056;-89
2022/06/06 02:53:19;;;;;;;20.95;14.93;;;;;;;15.90;100.00;100216.16;6249163;28;20029;-90
2022/06/06 02:56:21;;;;;;;24.08;14.02;;;;;;;15.77;100.00;100218.44;6240727;28;20498;-90
2022/06/06 02:59:25;;;;;;;20.08;13.82;;;;;;;15.66;100.00;100222.16;6245731;28;20509;-90
2022/06/06 03:02:27;;;;;;;21.73;14.95;;;;;;;15.62;100.00;100221.66;6243751;28;20249;-90
2022/06/06 03:06:04;;;;;;;25.17;15.40;;;;;;;15.61;100.00;100237.47;6246260;28;20045;-90
2022/06/06 03:09:32;;;;;;;23.38;14.48;;;;;;;15.68;100.00;100238.47;6164474;28;20141;-90
2022/06/06 03:12:34;;;;;;;15.90;12.52;;;;;;;15.83;100.00;100238.69;6169799;28;20069;-90
2022/06/06 03:23:03;;;;;;;16.15;12.32;;;;;;;15.99;100.00;100236.06;6138663;28;20059;-90
2022/06/06 03:26:14;;;;;;;17.38;13.82;;;;;;;16.02;100.00;100245.34;6137344;28;20553;-90
2022/06/06 03:29:38;;;;;;;16.17;12.00;;;;;;;16.05;100.00;100245.03;6109932;28;20101;-90
2022/06/06 03:33:06;;;;;;;16.80;11.93;;;;;;;16.13;100.00;100248.47;6136848;28;20047;-90
2022/06/06 03:36:25;;;;;;;14.45;10.73;;;;;;;16.16;100.00;100247.31;6139615;28;20058;-90
2022/06/06 03:39:27;;;;;;;17.90;12.40;;;;;;;16.31;100.00;100253.50;6144486;28;20059;-89
2022/06/06 03:42:46;;;;;;;18.33;12.32;;;;;;;16.41;100.00;100252.50;6139453;28;20492;-90
2022/06/06 03:46:12;;;;;;;16.52;11.77;;;;;;;16.34;100.00;100260.19;6124168;28;20059;-90
2022/06/06 03:49:26;;;;;;;15.40;11.48;;;;;;;16.32;100.00;100268.22;6149603;28;20544;-89
2022/06/06 03:52:53;;;;;;;17.58;12.70;;;;;;;16.50;100.00;100252.34;6163308;28;20066;-89
2022/06/06 03:56:07;;;;;;;18.65;12.35;;;;;;;16.49;100.00;100265.56;6159826;28;20060;-90
2022/06/06 03:59:10;;;;;;;18.73;12.07;;;;;;;16.61;100.00;100266.84;6178008;28;20522;-89
2022/06/06 04:02:21;;;;;;;19.60;12.93;;;;;;;16.75;100.00;100265.34;6241101;28;20041;-89
2022/06/06 04:05:23;;;;;;;18.98;13.23;;;;;;;16.79;100.00;100264.03;6234514;28;20499;-89
2022/06/06 04:08:24;;;;;;;21.23;14.07;;;;;;;16.77;100.00;100266.81;6227515;28;20094;-89
2022/06/06 04:11:44;;;;;;;24.38;14.73;;;;;;;16.83;100.00;100275.81;6213871;28;20100;-89
2022/06/06 04:15:06;;;;;;;22.83;14.63;;;;;;;16.76;100.00;100282.66;6239644;28;20479;-89
2022/06/06 04:18:41;;;;;;;26.02;15.23;;;;;;;16.73;100.00;100288.22;6186423;28;20620;-89
2022/06/06 04:22:20;;;;;;;26.65;14.45;;;;;;;16.71;100.00;100291.00;6186387;28;20580;-88
2022/06/06 04:25:46;;;;;;;23.73;15.63;;;;;;;16.74;100.00;100302.91;6187132;28;20042;-88
2022/06/06 04:29:11;;;;;;;24.25;15.43;;;;;;;16.63;100.00;100298.03;6186898;28;20062;-89
2022/06/06 04:32:47;;;;;;;25.50;16.92;;;;;;;16.66;100.00;100300.31;6176197;28;20057;-88
2022/06/06 04:36:13;;;;;;;25.33;16.10;;;;;;;16.72;100.00;100318.78;6182475;28;20062;-88
2022/06/06 04:39:30;;;;;;;25.73;16.55;;;;;;;16.73;100.00;100311.75;6170416;28;20047;-88
2022/06/06 04:42:50;;;;;;;28.50;15.85;;;;;;;16.70;100.00;100315.50;6187058;28;20214;-89
2022/06/06 04:46:01;;;;;;;26.92;14.98;;;;;;;16.63;100.00;100311.91;6187654;28;20077;-88
2022/06/06 04:49:04;;;;;;;21.55;13.45;;;;;;;16.70;100.00;100322.53;6187749;28;20058;-88
2022/06/06 04:52:08;;;;;;;24.50;14.48;;;;;;;16.65;100.00;100320.41;6186165;28;20053;-88
2022/06/06 04:55:11;;;;;;;21.08;13.60;;;;;;;16.65;100.00;100319.59;6211104;28;20046;-88
2022/06/06 04:58:15;;;;;;;23.52;14.07;;;;;;;16.61;100.00;100308.66;6226305;28;20140;-88
2022/06/06 05:01:17;;;;;;;23.98;14.32;;;;;;;16.45;100.00;100311.31;6243475;28;20537;-88
2022/06/06 05:04:20;;;;;;;24.33;13.98;;;;;;;16.38;100.00;100320.78;6231555;28;20188;-88
2022/06/06 05:07:39;;;;;;;24.80;14.07;;;;;;;16.18;100.00;100325.50;6238114;28;20050;-88
2022/06/06 05:11:01;;;;;;;21.17;12.90;;;;;;;16.11;100.00;100333.97;6237553;28;20061;-88
2022/06/06 05:14:28;;;;;;;21.45;12.90;;;;;;;16.11;100.00;100338.38;6237546;28;20415;-88
2022/06/06 05:17:43;;;;;;;20.48;12.00;;;;;;;16.13;100.00;100329.41;6225151;28;20068;-89
2022/06/06 05:21:03;;;;;;;18.45;10.52;;;;;;;16.39;100.00;100340.69;6237561;28;20501;-88
2022/06/06 05:24:30;;;;;;;16.88;9.93;;;;;;;16.42;100.00;100335.13;6237951;28;20061;-88
2022/06/06 05:28:03;;;;;;;17.60;10.02;;;;;;;16.42;100.00;100337.72;6237010;28;20111;-88
2022/06/06 05:31:46;;;;;;;17.40;10.18;;;;;;;16.55;100.00;100343.31;6238746;28;20037;-87
2022/06/06 05:35:00;;;;;;;16.63;10.15;;;;;;;16.52;100.00;100347.06;6190741;28;20057;-88
2022/06/06 05:38:16;;;;;;;15.85;9.82;;;;;;;16.51;100.00;100342.78;6176857;28;20057;-89
2022/06/06 05:41:57;;;;;;;15.48;9.75;;;;;;;16.55;100.00;100348.53;6189642;28;20061;-88
2022/06/06 05:45:22;;;;;;;18.40;9.30;;;;;;;16.66;100.00;100357.81;6190530;28;20148;-88
2022/06/06 05:48:54;;;;;;;14.57;9.07;;;;;;;16.80;100.00;100372.88;6190354;28;20046;-88
2022/06/06 05:52:43;;;;;;;17.60;10.07;;;;;;;16.99;100.00;100374.28;6170257;28;20050;-87
2022/06/06 05:56:06;;;;;;;20.27;10.88;;;;;;;17.07;100.00;100376.06;6105531;29;20068;-88
2022/06/06 05:59:34;;;;;;;17.83;10.68;;;;;;;17.13;100.00;100375.41;6095855;29;20040;-88
2022/06/06 06:03:13;;;;;;;20.15;11.75;;;;;;;17.24;100.00;100380.28;6107227;29;20134;-88
2022/06/06 06:06:53;;;;;;;21.42;13.40;;;;;;;17.27;100.00;100379.97;6114482;29;20526;-88
2022/06/06 06:10:41;;;;;;;21.98;13.63;;;;;;;17.38;100.00;100379.56;6107526;28;20491;-87
2022/06/06 06:14:18;;;;;;;23.30;14.88;;;;;;;17.39;100.00;100383.84;6086427;29;20056;-87
2022/06/06 06:17:24;;;;;;;21.90;15.23;;;;;;;17.40;100.00;100385.47;6095011;29;20509;-88
2022/06/06 06:20:33;;;;;;;23.13;14.60;;;;;;;17.35;100.00;100390.38;6095782;29;20051;-87
2022/06/06 06:23:40;;;;;;;24.83;14.93;;;;;;;17.33;100.00;100396.78;6092956;29;20053;-88
2022/06/06 06:26:43;;;;;;;21.15;13.75;;;;;;;17.39;100.00;100407.41;6070993;29;20048;-88
2022/06/06 06:29:46;;;;;;;21.13;13.80;;;;;;;17.45;100.00;100398.03;6101533;29;20063;-88
2022/06/06 06:33:18;;;;;;;19.40;12.20;;;;;;;17.62;100.00;100397.00;6136181;28;20054;-87
2022/06/06 06:36:35;;;;;;;18.15;11.77;;;;;;;17.95;100.00;100402.09;6150969;28;20122;-87
2022/06/06 06:39:54;;;;;;;19.55;12.13;;;;;;;18.11;100.00;100406.44;6152322;28;20550;-88
2022/06/06 06:43:17;;;;;;;19.30;12.23;;;;;;;18.22;100.00;100405.22;6166415;28;20050;-88
2022/06/06 06:46:33;;;;;;;17.80;11.30;;;;;;;18.42;100.00;100395.91;6158954;28;20459;-88
2022/06/06 06:49:55;;;;;;;16.65;10.73;;;;;;;18.67;100.00;100411.44;6161628;28;20464;-88
2022/06/06 06:53:35;;;;;;;15.15;10.45;;;;;;;18.90;100.00;100401.72;6236641;28;20048;-87
2022/06/06 06:57:08;;;;;;;17.80;11.65;;;;;;;18.98;100.00;100405.28;6245306;28;20521;-87
2022/06/06 07:00:21;;;;;;;15.15;9.52;;;;;;;19.06;100.00;100419.13;6232508;28;20133;-87
2022/06/06 07:11:22;;;;;;;12.43;9.25;;;;;;;19.02;100.00;100417.84;6148697;28;20046;-87
2022/06/06 07:14:56;;;;;;;12.85;8.57;;;;;;;19.20;98.91;100419.31;6149490;28;20077;-87
2022/06/06 07:18:04;;;;;;;12.93;8.68;;;;;;;19.17;100.00;100417.06;6163687;28;20084;-87
2022/06/06 07:21:09;;;;;;;11.35;8.45;;;;;;;19.27;100.00;100413.16;6164406;28;20125;-86
2022/06/06 07:24:16;;;;;;;14.52;9.00;;;;;;;19.35;100.00;100417.50;6174893;28;20760;-86
2022/06/06 07:27:18;;;;;;;14.38;8.85;;;;;;;19.35;100.00;100407.84;6163280;28;20070;-87
2022/06/06 07:30:21;;;;;;;13.30;9.40;;;;;;;19.32;100.00;100407.38;6161634;28;20085;-87
2022/06/06 07:33:47;;;;;;;11.90;8.27;;;;;;;19.31;99.04;100400.50;6162806;28;20655;-87
2022/06/06 07:37:09;;;;;;;15.07;9.77;;;;;;;19.33;100.00;100404.59;6161850;28;20548;-87
2022/06/06 07:40:36;;;;;;;12.82;8.75;;;;;;;19.46;100.00;100401.31;6186112;28;20086;-87
2022/06/06 07:43:57;;;;;;;10.77;8.00;;;;;;;19.60;99.16;100407.53;6222113;28;20427;-87
2022/06/06 07:47:19;;;;;;;10.82;8.07;;;;;;;19.73;100.00;100405.13;6228664;28;20049;-87
2022/06/06 07:50:32;;;;;;;11.63;8.27;;;;;;;19.80;98.99;100415.72;6222768;28;20045;-87
2022/06/06 07:53:43;;;;;;;10.43;7.82;;;;;;;19.93;98.37;100413.22;6234874;28;20495;-87
2022/06/06 07:56:50;;;;;;;11.00;8.27;;;;;;;19.93;96.74;100415.03;6221369;28;20045;-87
2022/06/06 08:00:11;;;;;;;11.70;8.15;;;;;;;19.98;97.47;100408.22;6222243;28;20609;-87
2022/06/06 08:03:42;;;;;;;;;;;;;;;19.94;96.81;100424.53;6231531;28;20495;-87
2022/06/06 08:07:01;;;;;;;10.07;7.10;;;;;;;20.01;93.21;100418.34;6161942;28;19925;-87
2022/06/06 08:10:34;;;;;;;9.63;7.88;;;;;;;20.03;93.18;100418.19;6147939;28;20059;-87
2022/06/06 08:14:01;;;;;;;9.32;6.35;;;;;;;20.30;91.75;100413.22;6163335;28;20067;-88
2022/06/06 08:17:30;;;;;;;8.55;6.57;;;;;;;20.46;94.88;100418.19;6162569;28;20078;-87
2022/06/06 08:20:56;;;;;;;8.70;5.50;;;;;;;20.33;88.40;100420.72;6161074;28;20410;-88
2022/06/06 08:24:01;;;;;;;9.88;5.53;;;;;;;20.34;88.92;100422.31;6161877;28;20046;-89
2022/06/06 08:27:28;;;;;;;8.15;4.93;;;;;;;20.49;92.04;100417.00;6149040;28;20053;-88
2022/06/06 08:30:30;;;;;;;7.82;4.70;;;;;;;20.81;84.87;100419.13;6161891;28;20530;-87
2022/06/06 08:33:33;;;;;;;6.90;4.80;;;;;;;20.94;86.96;100417.59;6162096;28;20046;-87
2022/06/06 08:36:51;;;;;;;6.00;5.40;;;;;;;21.19;87.05;100400.38;6161212;28;20085;-87
2022/06/06 08:40:11;;;;;;;6.90;4.80;;;;;;;21.28;86.34;100409.72;6145691;28;20057;-89
2022/06/06 08:43:18;;;;;;;6.30;4.75;;;;;;;21.00;84.12;100399.22;6191831;28;20065;-88
2022/06/06 08:46:50;;;;;;;6.78;4.57;;;;;;;21.03;83.81;100396.19;6230768;28;20048;-88
2022/06/06 08:53:48;;;;;;;4.68;3.58;;;;;;;20.97;79.62;100396.19;6252647;28;20102;-88
2022/06/06 08:57:24;;;;;;;4.55;3.83;;;;;;;20.91;84.96;100392.47;6230946;28;20168;-88
2022/06/06 09:00:55;;;;;;;6.00;3.85;;;;;;;20.90;82.61;100400.59;6231486;28;20080;-88
2022/06/06 09:04:34;;;;;;;5.32;3.40;;;;;;;20.76;83.98;100392.56;6235499;28;20070;-88
2022/06/06 09:08:13;;;;;;;4.45;3.08;;;;;;;20.46;82.44;100399.78;6237162;28;20415;-88
2022/06/06 09:12:09;;;;;;;5.15;3.58;;;;;;;20.30;84.99;100400.88;6226083;28;20122;-88
2022/06/06 09:15:40;;;;;;;4.50;3.28;;;;;;;20.31;81.61;100410.38;6233589;28;20099;-88
2022/06/06 09:18:41;;;;;;;;;;;;;;;20.21;82.10;100407.25;6229161;28;20048;-88
2022/06/06 09:22:14;;;;;;;8.32;3.67;;;;;;;20.40;87.19;100401.38;6234716;28;19921;-88
2022/06/06 09:25:59;;;;;;;4.63;3.75;;;;;;;20.91;82.78;100404.81;6232308;28;20152;-88
2022/06/06 09:29:22;;;;;;;4.88;3.45;;;;;;;21.21;76.87;100395.69;6231945;28;20426;-88
2022/06/06 09:33:01;;;;;;;5.13;3.50;;;;;;;21.30;77.21;100391.91;6232739;28;20054;-88
2022/06/06 09:36:31;;;;;;;3.75;3.28;;;;;;;21.27;80.48;100404.66;6222406;28;20045;-88
2022/06/06 09:39:55;;;;;;;3.30;2.00;;;;;;;21.21;73.82;100415.94;6219933;28;20049;-88
2022/06/06 09:43:05;;;;;;;4.80;2.50;;;;;;;21.14;70.55;100409.81;6233530;28;20040;-88
2022/06/06 09:46:33;;;;;;;2.50;2.25;;;;;;;20.78;69.28;100416.06;6229892;28;20037;-89
2022/06/06 09:49:44;;;;;;;2.20;2.00;;;;;;;20.51;69.41;100417.63;6233204;28;20152;-90
2022/06/06 09:53:00;;;;;;;1.80;1.70;;;;;;;20.01;71.86;100412.28;6232942;28;20410;-88
2022/06/06 10:00:44;;;;;;;2.00;1.80;;;;;;;20.55;69.97;100409.22;6233076;28;20281;-88
2022/06/06 10:04:01;;;;;;;2.97;1.90;;;;;;;20.88;69.79;100399.97;6196009;28;20054;-87
2022/06/06 10:07:29;;;;;;;2.05;1.80;;;;;;;21.35;67.28;100408.94;6203038;28;20053;-88
2022/06/06 10:11:00;;;;;;;2.22;1.75;;;;;;;21.78;68.57;100406.91;6201158;28;20558;-87
2022/06/06 10:14:21;;;;;;;3.08;1.80;;;;;;;21.52;63.38;100427.91;6205271;28;20128;-88
2022/06/06 10:17:48;;;;;;;3.33;1.67;;;;;;;20.59;80.32;100420.16;6206134;28;20049;-89
2022/06/06 10:21:26;;;;;;;3.30;2.40;;;;;;;19.88;88.51;100426.09;6203176;28;20140;-88
2022/06/06 10:24:48;;;;;;;3.05;2.30;;;;;;;19.91;96.20;100423.09;6205192;28;20050;-88
2022/06/06 10:28:02;;;;;;;2.20;2.00;;;;;;;20.51;89.42;100428.97;6208782;28;20079;-88
2022/06/06 10:31:48;;;;;;;3.10;2.20;;;;;;;21.04;80.79;100423.31;6206901;28;20092;-88
2022/06/06 10:35:15;;;;;;;1.88;1.75;;;;;;;21.22;71.60;100415.78;6208870;28;20064;-87
2022/06/06 10:38:51;;;;;;;1.55;1.42;;;;;;;21.40;68.67;100415.28;6194710;28;20090;-87
2022/06/06 10:42:13;;;;;;;1.92;1.60;;;;;;;21.55;64.94;100423.06;6217271;28;20166;-87
2022/06/06 10:45:38;;;;;;;3.50;1.52;;;;;;;21.09;65.60;100415.66;6228315;28;20037;-88
2022/06/06 10:49:17;;;;;;;1.83;1.63;;;;;;;21.45;67.66;100409.44;6224185;28;20155;-88
2022/06/06 10:52:32;;;;;;;1.83;1.30;;;;;;;21.41;61.15;100409.00;6242026;28;20073;-88
2022/06/06 10:56:16;;;;;;;1.75;1.42;;;;;;;21.53;64.46;100411.91;6228553;28;20419;-89
2022/06/06 10:59:58;;;;;;;3.03;1.50;;;;;;;21.83;59.40;100401.06;6232305;28;20207;-88
2022/06/06 11:03:44;;;;;;;3.05;1.48;;;;;;;22.40;60.06;100409.53;6238529;28;20045;-89
2022/06/06 11:07:05;;;;;;;2.22;1.73;;;;;;;22.96;55.93;100412.56;6226833;28;20077;-90
2022/06/06 11:10:29;;;;;;;2.00;1.60;;;;;;;23.28;53.41;100403.97;6234516;28;20053;-90
2022/06/06 11:14:09;;;;;;;1.38;1.20;;;;;;;22.78;49.41;100404.44;6247097;28;20444;-89
2022/06/06 11:17:49;;;;;;;1.50;1.27;;;;;;;22.63;51.00;100391.47;6233036;28;20052;-90
2022/06/06 11:21:22;;;;;;;3.40;1.13;;;;;;;22.80;51.85;100397.13;6234755;28;20067;-89
2022/06/06 11:24:57;;;;;;;1.42;1.00;;;;;;;22.72;46.72;100390.25;6236780;28;20616;-89
2022/06/06 11:28:35;;;;;;;1.20;0.80;;;;;;;22.62;46.99;100395.13;6233166;28;20049;-88
2022/06/06 11:32:02;;;;;;;2.60;0.90;;;;;;;22.91;45.60;100393.09;6231645;28;20057;-88
2022/06/06 11:35:17;;;;;;;1.52;0.90;;;;;;;23.09;46.31;100393.28;6232444;28;20045;-90
2022/06/06 11:38:47;;;;;;;2.85;1.10;;;;;;;23.56;43.47;100395.78;6234056;28;20093;-90
2022/06/06 11:42:10;;;;;;;1.23;0.80;;;;;;;24.04;45.48;100392.69;6232917;28;20040;-88
2022/06/06 11:45:41;;;;;;;1.52;0.82;;;;;;;23.87;43.31;100397.66;6231219;28;20026;-89
2022/06/06 11:49:14;;;;;;;1.75;1.25;;;;;;;23.38;43.06;100394.63;6233462;28;20037;-88
2022/06/06 11:52:25;;;;;;;1.63;1.08;;;;;;;23.10;47.38;100402.81;6230622;28;20064;-88
2022/06/06 11:55:35;;;;;;;1.45;1.10;;;;;;;23.13;48.04;100397.13;6231735;28;20056;-89
2022/06/06 11:59:10;;;;;;;1.80;1.20;;;;;;;23.35;45.29;100405.59;6239195;28;20625;-88
2022/06/06 12:02:32;;;;;;;1.30;1.20;;;;;;;23.50;44.32;100413.25;6246590;28;20040;-87
2022/06/06 12:06:00;;;;;;;1.15;1.05;;;;;;;23.79;44.24;100411.13;6241048;28;20040;-88
2022/06/06 12:09:25;;;;;;;1.38;1.10;;;;;;;23.60;41.81;100415.44;6243063;28;20046;-88
2022/06/06 12:12:47;;;;;;;1.88;1.30;;;;;;;23.32;44.86;100399.91;6234042;28;20144;-88
2022/06/06 12:16:07;;;;;;;2.05;1.30;;;;;;;23.32;45.58;100406.00;6224476;28;20056;-88
2022/06/06 12:19:35;;;;;;;3.10;1.20;;;;;;;23.91;46.70;100393.59;6227806;28;20054;-89
2022/06/06 12:22:55;;;;;;;1.45;1.20;;;;;;;24.34;44.98;100392.09;6230871;28;20061;-89
2022/06/06 12:26:31;;;;;;;2.03;1.40;;;;;;;24.36;42.17;100376.81;6238512;28;20045;-88
2022/06/06 12:29:52;;;;;;;1.20;1.10;;;;;;;24.21;42.62;100383.22;6245982;28;20071;-86
2022/06/06 12:33:05;;;;;;;3.33;1.50;;;;;;;24.22;45.56;100384.84;6235317;28;20616;-87
2022/06/06 12:36:35;;;;;;;1.30;1.20;;;;;;;24.20;42.20;100378.97;6238159;28;20048;-86
2022/06/06 12:40:18;;;;;;;3.03;1.40;;;;;;;23.75;45.95;100378.22;6229513;28;20052;-86
2022/06/06 12:43:27;;;;;;;1.60;1.50;;;;;;;23.90;48.84;100375.28;6229957;28;20107;-86
2022/06/06 12:46:48;;;;;;;1.35;1.20;;;;;;;23.92;43.42;100378.53;6237262;28;20064;-87
2022/06/06 12:50:10;;;;;;;1.27;1.17;;;;;;;24.31;44.10;100374.00;6251559;28;20219;-87
2022/06/06 12:53:19;;;;;;;1.05;0.90;;;;;;;24.69;40.31;100361.50;6251522;28;20048;-86
2022/06/06 12:56:52;;;;;;;0.70;0.70;;;;;;;24.59;40.64;100363.81;6241514;28;20346;-86
2022/06/06 13:00:04;;;;;;;1.92;0.85;;;;;;;24.25;39.46;100370.38;6242973;28;20037;-86
2022/06/06 13:03:23;;;;;;;0.93;0.82;;;;;;;24.21;40.63;100361.25;6245844;28;20104;-85
2022/06/06 13:06:49;;;;;;;2.35;1.00;;;;;;;24.43;38.82;100370.44;6243861;28;20040;-86
2022/06/06 13:10:29;;;;;;;0.85;0.60;;;;;;;24.45;40.86;100364.94;6237018;28;20053;-86
2022/06/06 13:13:46;;;;;;;0.60;0.60;;;;;;;24.69;40.87;100364.16;6230440;28;20049;-87
2022/06/06 13:17:13;;;;;;;2.05;0.88;;;;;;;24.69;40.00;100363.31;6239897;28;20500;-85
2022/06/06 13:20:19;;;;;;;1.30;1.15;;;;;;;25.61;40.38;100365.16;6229620;28;20045;-88
2022/06/06 13:23:55;;;;;;;0.90;0.70;;;;;;;25.63;37.62;100363.09;6247331;28;20049;-86
2022/06/06 13:27:19;;;;;;;0.88;0.80;;;;;;;25.01;36.17;100365.84;6228418;28;20761;-88
2022/06/06 13:30:45;;;;;;;1.00;0.70;;;;;;;24.00;39.78;100380.91;6221774;28;20041;-88
2022/06/06 13:34:39;;;;;;;1.13;0.85;;;;;;;23.19;41.57;100380.44;6229684;28;20445;-88
2022/06/06 13:38:02;;;;;;;2.08;1.00;;;;;;;22.59;45.48;100374.44;6223960;28;20140;-87
2022/06/06 13:41:24;;;;;;;1.00;0.80;;;;;;;22.12;47.97;100389.38;6245440;28;20038;-87
2022/06/06 13:44:50;;;;;;;1.08;1.08;;;;;;;21.23;54.18;100414.75;6183219;28;20046;-87
2022/06/06 13:47:59;;;;;;;2.60;0.95;;;;;;;19.87;72.18;100439.41;6187404;28;20059;-87
2022/06/06 13:51:19;;;;;;;16.08;2.30;;;;;;;18.17;100.00;100452.91;6186915;28;20088;-88
2022/06/06 13:54:36;;;;;;;2.80;1.20;;;;;;;16.85;100.00;100474.34;6192041;28;20061;-87
2022/06/06 13:57:53;;;;;;;2.08;1.23;;;;;;;16.26;100.00;100454.28;6173450;28;20057;-87
2022/06/06 14:01:29;;;;;;;8.25;1.60;;;;;;;16.20;100.00;100454.94;6190109;28;20076;-89
2022/06/06 14:04:50;;;;;;;1.60;1.40;;;;;;;16.18;100.00;100462.13;6172245;28;20069;-89
2022/06/06 14:08:04;;;;;;;1.80;1.02;;;;;;;16.05;100.00;100462.56;6189621;28;20073;-90
2022/06/06 14:11:10;;;;;;;4.47;1.30;;;;;;;15.94;100.00;100463.66;6172089;28;20053;-91
2022/06/06 14:14:19;;;;;;;1.50;1.40;;;;;;;16.01;100.00;100450.81;6189547;28;20054;-90
2022/06/06 14:18:07;;;;;;;1.30;1.20;;;;;;;16.26;100.00;100443.84;6177003;28;20054;-90
2022/06/06 14:21:32;;;;;;;1.42;1.33;;;;;;;16.47;100.00;100446.03;6212553;28;20092;-91
2022/06/06 14:24:36;;;;;;;1.90;1.30;;;;;;;16.84;100.00;100426.44;6232514;28;20053;-92
2022/06/06 14:27:42;;;;;;;1.98;1.13;;;;;;;17.51;100.00;100412.25;6238999;28;20041;-92
2022/06/06 14:30:47;;;;;;;2.65;1.45;;;;;;;18.08;100.00;100404.97;6234061;28;20054;-92
2022/06/06 14:33:59;;;;;;;2.58;1.17;;;;;;;18.93;100.00;100404.03;6233949;28;20499;-94
2022/06/06 14:37:15;;;;;;;1.98;1.20;;;;;;;20.43;100.00;100394.91;6229686;28;20360;-93
2022/06/06 14:40:43;;;;;;;1.73;1.05;;;;;;;21.53;100.00;100390.81;6238954;28;20044;-94
2022/06/06 14:44:03;;;;;;;1.08;0.95;;;;;;;22.69;100.00;100387.22;6235737;28;20573;-96
2022/06/06 14:47:28;;;;;;;0.57;0.57;;;;;;;23.91;86.33;100390.94;6235868;28;20084;-96
2022/06/06 14:51:00;;;;;;;0.70;0.68;;;;;;;24.20;65.44;100396.69;6241234;28;20053;-92
2022/06/06 14:54:08;;;;;;;0.95;0.85;;;;;;;23.43;69.40;100388.72;6233089;28;20052;-92
2022/06/06 14:57:12;;;;;;;0.70;0.50;;;;;;;23.79;71.57;100390.00;6228551;28;20103;-93
2022/06/06 15:00:35;;;;;;;0.50;0.50;;;;;;;24.95;69.60;100387.94;6229017;28;20457;-91
2022/06/06 15:04:03;;;;;;;1.27;0.65;;;;;;;25.37;59.43;100390.75;6229450;28;20415;-92
2022/06/06 15:07:18;;;;;;;0.93;0.55;;;;;;;25.11;59.69;100382.03;6235689;28;20049;-91
2022/06/06 15:10:40;;;;;;;0.50;0.50;;;;;;;24.86;56.65;100385.53;6251556;28;20032;-91
2022/06/06 15:13:49;;;;;;;0.50;0.50;;;;;;;24.48;57.91;100380.41;6236479;28;20045;-91
2022/06/06 15:16:52;;;;;;;1.17;0.50;;;;;;;24.74;62.18;100387.28;6261565;28;20409;-89
2022/06/06 15:20:28;;;;;;;0.80;0.57;;;;;;;25.01;53.15;100387.84;6222044;28;20457;-89
2022/06/06 15:23:58;;;;;;;0.50;0.50;;;;;;;25.11;50.68;100396.09;6228987;28;20037;-89
2022/06/06 15:27:43;;;;;;;3.67;0.68;;;;;;;24.47;50.76;100387.53;6229240;28;20045;-89
2022/06/06 15:31:03;;;;;;;0.95;0.63;;;;;;;24.62;51.39;100403.09;6233147;28;20064;-90
2022/06/06 15:34:29;;;;;;;0.55;0.43;;;;;;;24.70;50.06;100397.53;6222259;28;20044;-89
2022/06/06 15:38:09;;;;;;;1.20;0.70;;;;;;;24.80;52.69;100401.50;6232998;28;20069;-90
2022/06/06 15:41:48;;;;;;;1.13;0.50;;;;;;;24.81;50.86;100389.88;6229915;28;20046;-90